Vienna, Illinois
Current Conditions -  °F | °C
As of 7:15 AM on Saturday 22 Nov 2014 (Local Time) from KM30 Reporting Station
Overcast Overcast  
Wind Chill: 53°   Ceiling: 8500
Heat Index: 53°   Visibility: 10mi
Dew Point: 43°   Wind: 6mph
Humidity: 67%   Direction: 160°SSE
Pressure: 30.25"   Gusts: NA
Location:  37.42°N, 88.9°W
Report Text: KM30 221315Z AUTO 16005KT 10SM OVC085 12/06 A3025 RMK AO2 T01180059
Loading
Personal Weather Stations






























Interactive Weather Map New forecast layout! Learn more

10-Day Weather Forecast

Advertisements
Track Severe Weather on mobile